sensor_id;sensor_type;location;lat;lon;timestamp;pressure;altitude;pressure_sealevel;temperature;humidity
34185;BME280;20454;48.100;11.776;2023-05-10T03:21:24;94829.53;;;13.22;100.00
34185;BME280;20454;48.100;11.776;2023-05-10T03:23:58;94829.53;;;13.22;100.00
34185;BME280;20454;48.100;11.776;2023-05-10T03:26:26;94832.75;;;13.24;100.00
34185;BME280;20454;48.100;11.776;2023-05-10T03:28:52;94817.88;;;13.20;100.00
34185;BME280;20454;48.100;11.776;2023-05-10T03:31:18;94828.34;;;13.23;100.00
34185;BME280;20454;48.100;11.776;2023-05-10T03:33:51;94835.91;;;13.22;100.00
34185;BME280;20454;48.100;11.776;2023-05-10T03:36:18;94833.22;;;13.26;100.00
34185;BME280;20454;48.100;11.776;2023-05-10T03:38:44;94830.69;;;13.21;100.00
34185;BME280;20454;48.100;11.776;2023-05-10T03:41:09;94837.19;;;13.25;100.00
34185;BME280;20454;48.100;11.776;2023-05-10T03:43:35;94828.69;;;13.21;100.00
34185;BME280;20454;48.100;11.776;2023-05-10T03:46:04;94835.91;;;13.22;100.00
34185;BME280;20454;48.100;11.776;2023-05-10T03:48:31;94835.91;;;13.22;100.00
34185;BME280;20454;48.100;11.776;2023-05-10T03:50:57;94837.53;;;13.23;100.00
34185;BME280;20454;48.100;11.776;2023-05-10T03:53:23;94839.06;;;13.21;100.00
34185;BME280;20454;48.100;11.776;2023-05-10T03:55:48;94837.81;;;13.18;100.00
34185;BME280;20454;48.100;11.776;2023-05-10T03:58:14;94838.88;;;13.14;100.00
34185;BME280;20454;48.100;11.776;2023-05-10T04:00:40;94839.41;;;13.19;100.00
34185;BME280;20454;48.100;11.776;2023-05-10T04:03:09;94848.25;;;13.21;100.00
34185;BME280;20454;48.100;11.776;2023-05-10T04:05:35;94848.25;;;13.21;100.00
34185;BME280;20454;48.100;11.776;2023-05-10T04:08:02;94841.75;;;13.17;100.00
34185;BME280;20454;48.100;11.776;2023-05-10T04:10:27;94851.88;;;13.22;100.00
34185;BME280;20454;48.100;11.776;2023-05-10T04:12:53;94843.38;;;13.18;100.00
34185;BME280;20454;48.100;11.776;2023-05-10T04:15:19;94853.38;;;13.19;100.00
34185;BME280;20454;48.100;11.776;2023-05-10T04:17:44;94854.19;;;13.20;100.00
34185;BME280;20454;48.100;11.776;2023-05-10T04:20:11;94843.63;;;13.13;100.00
34185;BME280;20454;48.100;11.776;2023-05-10T04:22:37;94862.13;;;13.18;100.00
34185;BME280;20454;48.100;11.776;2023-05-10T04:25:03;94858.97;;;13.19;100.00
34185;BME280;20454;48.100;11.776;2023-05-10T04:27:28;94852.56;;;13.19;100.00
34185;BME280;20454;48.100;11.776;2023-05-10T04:29:54;94855.84;;;13.21;100.00
34185;BME280;20454;48.100;11.776;2023-05-10T04:32:20;94864.66;;;13.23;100.00
34185;BME280;20454;48.100;11.776;2023-05-10T04:34:46;94853.50;;;13.23;100.00
34185;BME280;20454;48.100;11.776;2023-05-10T04:37:11;94859.06;;;13.23;100.00
34185;BME280;20454;48.100;11.776;2023-05-10T04:39:37;94860.81;;;13.27;100.00
34185;BME280;20454;48.100;11.776;2023-05-10T04:42:03;94859.06;;;13.23;100.00
34185;BME280;20454;48.100;11.776;2023-05-10T04:44:33;94864.66;;;13.23;100.00
34185;BME280;20454;48.100;11.776;2023-05-10T06:02:09;94950.91;;;12.88;100.00
34185;BME280;20454;48.100;11.776;2023-05-10T06:04:35;94949.66;;;12.86;100.00
34185;BME280;20454;48.100;11.776;2023-05-10T06:07:00;94947.88;;;12.81;100.00
34185;BME280;20454;48.100;11.776;2023-05-10T06:09:26;94936.88;;;12.73;100.00
34185;BME280;20454;48.100;11.776;2023-05-10T06:11:52;94945.47;;;12.80;100.00
34185;BME280;20454;48.100;11.776;2023-05-10T06:14:17;94954.41;;;12.85;100.00
34185;BME280;20454;48.100;11.776;2023-05-10T06:16:45;94960.09;;;12.89;100.00
34185;BME280;20454;48.100;11.776;2023-05-10T06:19:10;94955.25;;;12.86;100.00
34185;BME280;20454;48.100;11.776;2023-05-10T06:21:36;94960.56;;;12.91;100.00
34185;BME280;20454;48.100;11.776;2023-05-10T06:24:02;94959.41;;;12.92;100.00
34185;BME280;20454;48.100;11.776;2023-05-10T06:26:28;94969.56;;;12.96;100.00
34185;BME280;20454;48.100;11.776;2023-05-10T06:28:53;94967.34;;;13.02;100.00
34185;BME280;20454;48.100;11.776;2023-05-10T06:31:19;94973.28;;;13.12;100.00
34185;BME280;20454;48.100;11.776;2023-05-10T06:33:45;94979.19;;;13.23;100.00
34185;BME280;20454;48.100;11.776;2023-05-10T06:36:10;94984.28;;;13.33;100.00
34185;BME280;20454;48.100;11.776;2023-05-10T06:38:36;94973.31;;;13.40;100.00
34185;BME280;20454;48.100;11.776;2023-05-10T06:41:02;94978.34;;;13.46;100.00
34185;BME280;20454;48.100;11.776;2023-05-10T06:43:28;94977.38;;;13.54;100.00
34185;BME280;20454;48.100;11.776;2023-05-10T06:45:54;94987.50;;;13.59;100.00
34185;BME280;20454;48.100;11.776;2023-05-10T06:48:19;94989.69;;;13.65;100.00
34185;BME280;20454;48.100;11.776;2023-05-10T06:50:45;94985.94;;;13.73;100.00
34185;BME280;20454;48.100;11.776;2023-05-10T06:53:11;94984.72;;;13.86;100.00
34185;BME280;20454;48.100;11.776;2023-05-10T06:55:37;94986.19;;;13.96;100.00
34185;BME280;20454;48.100;11.776;2023-05-10T06:58:03;94988.94;;;14.08;100.00
34185;BME280;20454;48.100;11.776;2023-05-10T07:10:50;94989.63;;;14.60;100.00
34185;BME280;20454;48.100;11.776;2023-05-10T07:13:16;94988.63;;;14.83;100.00
34185;BME280;20454;48.100;11.776;2023-05-10T07:15:41;94978.41;;;14.90;100.00
34185;BME280;20454;48.100;11.776;2023-05-10T07:18:07;94978.41;;;15.06;100.00
34185;BME280;20454;48.100;11.776;2023-05-10T07:20:33;94984.81;;;15.06;100.00
34185;BME280;20454;48.100;11.776;2023-05-10T07:22:59;94980.38;;;15.05;100.00
34185;BME280;20454;48.100;11.776;2023-05-10T07:25:24;94982.91;;;15.10;100.00
34185;BME280;20454;48.100;11.776;2023-05-10T07:27:50;94986.63;;;15.14;100.00
34185;BME280;20454;48.100;11.776;2023-05-10T07:30:16;94983.09;;;15.17;100.00
34185;BME280;20454;48.100;11.776;2023-05-10T07:32:42;94985.97;;;15.21;99.12
34185;BME280;20454;48.100;11.776;2023-05-10T07:35:08;94982.50;;;15.27;98.63
34185;BME280;20454;48.100;11.776;2023-05-10T07:37:33;94987.25;;;15.23;99.06
34185;BME280;20454;48.100;11.776;2023-05-10T07:39:59;94980.38;;;15.21;98.82
34185;BME280;20454;48.100;11.776;2023-05-10T07:42:25;94978.91;;;15.27;99.52
34185;BME280;20454;48.100;11.776;2023-05-10T07:44:50;94990.56;;;15.29;98.05
34185;BME280;20454;48.100;11.776;2023-05-10T07:47:16;94997.44;;;15.16;99.37
34185;BME280;20454;48.100;11.776;2023-05-10T07:49:42;94996.28;;;15.17;100.00
34185;BME280;20454;48.100;11.776;2023-05-10T07:52:08;95003.69;;;15.25;100.00
34185;BME280;20454;48.100;11.776;2023-05-10T07:54:34;95003.78;;;15.28;96.42
34185;BME280;20454;48.100;11.776;2023-05-10T07:57:00;94989.75;;;15.44;96.27
34185;BME280;20454;48.100;11.776;2023-05-10T07:59:26;94994.72;;;15.50;92.88
34185;BME280;20454;48.100;11.776;2023-05-10T08:01:51;94999.47;;;15.65;93.61
34185;BME280;20454;48.100;11.776;2023-05-10T08:04:17;94983.41;;;15.81;95.94
34185;BME280;20454;48.100;11.776;2023-05-10T08:06:43;94994.84;;;15.92;95.10
34185;BME280;20454;48.100;11.776;2023-05-10T08:09:08;94987.53;;;15.87;93.96
34185;BME280;20454;48.100;11.776;2023-05-10T08:11:34;94990.13;;;15.77;91.77
34185;BME280;20454;48.100;11.776;2023-05-10T08:14:00;94990.53;;;15.60;92.03
34185;BME280;20454;48.100;11.776;2023-05-10T08:16:26;94997.72;;;15.42;93.21
34185;BME280;20454;48.100;11.776;2023-05-10T08:18:51;95004.00;;;15.35;95.31
34185;BME280;20454;48.100;11.776;2023-05-10T08:21:17;94996.91;;;15.26;93.09
34185;BME280;20454;48.100;11.776;2023-05-10T08:23:43;94991.66;;;15.24;94.29
34185;BME280;20454;48.100;11.776;2023-05-10T08:26:11;95005.53;;;15.33;96.40
34185;BME280;20454;48.100;11.776;2023-05-10T08:28:37;95006.97;;;15.42;95.26
34185;BME280;20454;48.100;11.776;2023-05-10T08:31:04;94996.88;;;15.57;94.02
34185;BME280;20454;48.100;11.776;2023-05-10T08:33:29;95002.47;;;15.91;93.73
34185;BME280;20454;48.100;11.776;2023-05-10T08:35:55;94993.53;;;16.24;89.83
34185;BME280;20454;48.100;11.776;2023-05-10T08:38:21;94995.38;;;16.54;88.75
34185;BME280;20454;48.100;11.776;2023-05-10T08:40:46;94992.97;;;16.75;87.03
34185;BME280;20454;48.100;11.776;2023-05-10T08:43:14;95000.16;;;16.95;81.08
34185;BME280;20454;48.100;11.776;2023-05-10T08:45:44;94988.22;;;17.02;79.66
34185;BME280;20454;48.100;11.776;2023-05-10T08:48:13;94987.44;;;17.27;82.59
34185;BME280;20454;48.100;11.776;2023-05-10T08:50:41;94986.81;;;17.60;80.79
34185;BME280;20454;48.100;11.776;2023-05-10T08:53:12;94995.75;;;17.95;75.45
34185;BME280;20454;48.100;11.776;2023-05-10T08:55:38;94985.84;;;18.04;72.92
34185;BME280;20454;48.100;11.776;2023-05-10T08:58:06;94991.75;;;18.25;70.17
34185;BME280;20454;48.100;11.776;2023-05-10T09:00:32;95001.25;;;18.17;70.46
34185;BME280;20454;48.100;11.776;2023-05-10T09:02:58;94990.91;;;18.25;68.89
34185;BME280;20454;48.100;11.776;2023-05-10T09:05:24;94999.66;;;18.16;70.13
34185;BME280;20454;48.100;11.776;2023-05-10T09:07:50;94997.03;;;18.01;71.29
34185;BME280;20454;48.100;11.776;2023-05-10T09:10:16;95000.78;;;17.82;72.16
34185;BME280;20454;48.100;11.776;2023-05-10T09:12:43;94997.19;;;17.56;70.64
34185;BME280;20454;48.100;11.776;2023-05-10T09:15:10;95003.06;;;17.47;71.57
34185;BME280;20454;48.100;11.776;2023-05-10T09:17:38;94997.00;;;17.45;74.03
34185;BME280;20454;48.100;11.776;2023-05-10T09:20:06;95004.25;;;17.46;72.46
34185;BME280;20454;48.100;11.776;2023-05-10T09:22:32;94998.94;;;17.41;72.40
34185;BME280;20454;48.100;11.776;2023-05-10T09:25:05;95002.75;;;17.52;72.08
34185;BME280;20454;48.100;11.776;2023-05-10T09:27:32;94996.84;;;17.61;68.17
34185;BME280;20454;48.100;11.776;2023-05-10T09:29:58;94998.09;;;17.63;70.24
34185;BME280;20454;48.100;11.776;2023-05-10T09:35:13;95006.38;;;17.53;71.42
34185;BME280;20454;48.100;11.776;2023-05-10T09:37:40;95014.41;;;17.54;71.10
34185;BME280;20454;48.100;11.776;2023-05-10T09:40:22;95008.22;;;17.42;71.13
34185;BME280;20454;48.100;11.776;2023-05-10T09:42:55;95005.41;;;17.42;73.00
34185;BME280;20454;48.100;11.776;2023-05-10T09:45:23;95002.91;;;17.37;71.91
34185;BME280;20454;48.100;11.776;2023-05-10T09:47:49;94999.34;;;17.40;71.22
34185;BME280;20454;48.100;11.776;2023-05-10T09:50:15;95001.03;;;17.70;73.79
34185;BME280;20454;48.100;11.776;2023-05-10T09:52:53;95001.38;;;17.95;72.48
34185;BME280;20454;48.100;11.776;2023-05-10T09:55:24;94999.66;;;18.16;70.73
34185;BME280;20454;48.100;11.776;2023-05-10T09:57:59;95001.09;;;18.33;69.47
34185;BME280;20454;48.100;11.776;2023-05-10T10:00:25;95000.59;;;18.27;69.61
34185;BME280;20454;48.100;11.776;2023-05-10T10:02:58;94993.91;;;18.09;69.59
34185;BME280;20454;48.100;11.776;2023-05-10T10:05:29;94999.16;;;17.81;69.64
34185;BME280;20454;48.100;11.776;2023-05-10T10:07:55;94991.19;;;17.57;70.75
34185;BME280;20454;48.100;11.776;2023-05-10T10:10:22;94998.56;;;17.43;71.65
34185;BME280;20454;48.100;11.776;2023-05-10T10:12:48;95005.50;;;17.26;71.87
34185;BME280;20454;48.100;11.776;2023-05-10T10:15:14;95002.91;;;17.14;73.01
34185;BME280;20454;48.100;11.776;2023-05-10T10:17:40;95003.47;;;17.01;69.41
34185;BME280;20454;48.100;11.776;2023-05-10T10:20:06;95005.44;;;17.00;71.62
34185;BME280;20454;48.100;11.776;2023-05-10T10:22:33;94996.69;;;17.05;71.92
34185;BME280;20454;48.100;11.776;2023-05-10T10:24:58;94999.88;;;17.26;73.32
34185;BME280;20454;48.100;11.776;2023-05-10T10:27:36;94994.09;;;17.38;73.40
34185;BME280;20454;48.100;11.776;2023-05-10T10:32:59;94998.09;;;17.63;72.88
34185;BME280;20454;48.100;11.776;2023-05-10T10:35:31;94993.59;;;17.85;70.51
34185;BME280;20454;48.100;11.776;2023-05-10T10:37:57;94983.91;;;18.12;71.23
34185;BME280;20454;48.100;11.776;2023-05-10T10:40:30;94982.25;;;18.37;71.62
34185;BME280;20454;48.100;11.776;2023-05-10T10:42:56;94983.69;;;18.57;69.81
34185;BME280;20454;48.100;11.776;2023-05-10T10:45:24;94972.09;;;18.65;69.09
34185;BME280;20454;48.100;11.776;2023-05-10T10:48:22;94979.56;;;18.84;69.40
34185;BME280;20454;48.100;11.776;2023-05-10T10:50:56;94985.69;;;18.93;67.81
34185;BME280;20454;48.100;11.776;2023-05-10T10:53:21;94978.09;;;19.00;67.18
34185;BME280;20454;48.100;11.776;2023-05-10T10:55:47;94980.25;;;19.14;67.46
34185;BME280;20454;48.100;11.776;2023-05-10T10:58:30;94977.44;;;19.14;65.64
34185;BME280;20454;48.100;11.776;2023-05-10T11:01:15;94967.63;;;19.01;65.47
34185;BME280;20454;48.100;11.776;2023-05-10T11:04:39;94982.50;;;18.94;67.31
34185;BME280;20454;48.100;11.776;2023-05-10T11:06:40;94977.53;;;18.84;67.11
34185;BME280;20454;48.100;11.776;2023-05-10T11:09:09;94978.25;;;18.74;67.49
34185;BME280;20454;48.100;11.776;2023-05-10T11:11:36;94973.72;;;18.66;66.86
34185;BME280;20454;48.100;11.776;2023-05-10T11:14:03;94971.31;;;18.65;67.19
34185;BME280;20454;48.100;11.776;2023-05-10T11:16:29;94976.59;;;18.73;65.86
34185;BME280;20454;48.100;11.776;2023-05-10T11:19:23;94968.28;;;18.84;64.67
34185;BME280;20454;48.100;11.776;2023-05-10T11:24:30;94976.28;;;18.78;65.22
34185;BME280;20454;48.100;11.776;2023-05-10T11:26:56;94972.88;;;18.62;66.73
34185;BME280;20454;48.100;11.776;2023-05-10T11:29:22;94974.63;;;18.41;68.80
34185;BME280;20454;48.100;11.776;2023-05-10T11:31:48;94983.09;;;18.11;70.34
34185;BME280;20454;48.100;11.776;2023-05-10T11:34:25;94984.00;;;17.89;72.52
34185;BME280;20454;48.100;11.776;2023-05-10T11:36:52;94988.47;;;17.64;76.62
34185;BME280;20454;48.100;11.776;2023-05-10T11:39:19;94990.00;;;17.36;80.86
34185;BME280;20454;48.100;11.776;2023-05-10T11:41:48;94993.28;;;17.15;82.70
34185;BME280;20454;48.100;11.776;2023-05-10T11:44:14;94992.91;;;16.94;82.90
34185;BME280;20454;48.100;11.776;2023-05-10T11:46:40;94985.25;;;16.72;84.70
34185;BME280;20454;48.100;11.776;2023-05-10T11:49:07;94990.56;;;16.55;87.18
34185;BME280;20454;48.100;11.776;2023-05-10T11:51:36;94995.72;;;16.34;90.65
34185;BME280;20454;48.100;11.776;2023-05-10T11:54:05;94999.78;;;16.17;92.77
34185;BME280;20454;48.100;11.776;2023-05-10T11:56:32;94996.63;;;16.00;95.12
34185;BME280;20454;48.100;11.776;2023-05-10T11:58:59;95004.28;;;15.84;95.45
34185;BME280;20454;48.100;11.776;2023-05-10T12:01:28;95016.75;;;15.67;97.74
34185;BME280;20454;48.100;11.776;2023-05-10T12:03:55;95017.94;;;15.51;97.31
34185;BME280;20454;48.100;11.776;2023-05-10T12:06:32;95030.63;;;15.29;98.66
34185;BME280;20454;48.100;11.776;2023-05-10T12:09:04;95040.56;;;14.96;93.49
34185;BME280;20454;48.100;11.776;2023-05-10T12:11:30;95049.97;;;14.73;94.74
34185;BME280;20454;48.100;11.776;2023-05-10T12:13:56;95059.88;;;14.55;96.60
34185;BME280;20454;48.100;11.776;2023-05-10T12:16:23;95056.72;;;14.17;98.40
34185;BME280;20454;48.100;11.776;2023-05-10T12:18:50;95061.25;;;13.94;100.00
34185;BME280;20454;48.100;11.776;2023-05-10T12:21:17;95048.41;;;13.65;100.00
34185;BME280;20454;48.100;11.776;2023-05-10T12:23:45;95048.19;;;13.46;100.00
34185;BME280;20454;48.100;11.776;2023-05-10T12:26:11;95055.53;;;13.39;100.00
34185;BME280;20454;48.100;11.776;2023-05-10T12:28:37;95064.75;;;13.39;100.00
34185;BME280;20454;48.100;11.776;2023-05-10T12:31:03;95065.91;;;13.38;100.00
34185;BME280;20454;48.100;11.776;2023-05-10T12:33:36;95073.69;;;13.45;100.00
34185;BME280;20454;48.100;11.776;2023-05-10T12:36:04;95084.97;;;13.48;100.00
34185;BME280;20454;48.100;11.776;2023-05-10T12:38:35;95078.44;;;13.44;100.00
34185;BME280;20454;48.100;11.776;2023-05-10T12:41:07;95084.16;;;13.48;100.00
34185;BME280;20454;48.100;11.776;2023-05-10T12:43:34;95080.56;;;13.47;100.00
34185;BME280;20454;48.100;11.776;2023-05-10T12:46:16;95084.63;;;13.50;100.00
34185;BME280;20454;48.100;11.776;2023-05-10T12:48:43;95086.16;;;13.47;100.00
34185;BME280;20454;48.100;11.776;2023-05-10T12:51:09;95087.31;;;13.46;100.00
34185;BME280;20454;48.100;11.776;2023-05-10T12:53:37;95085.81;;;13.49;100.00
34185;BME280;20454;48.100;11.776;2023-05-10T12:56:03;95098.34;;;13.55;100.00
34185;BME280;20454;48.100;11.776;2023-05-10T12:58:29;95099.63;;;13.57;100.00
34185;BME280;20454;48.100;11.776;2023-05-10T13:00:55;95093.72;;;13.59;100.00
34185;BME280;20454;48.100;11.776;2023-05-10T13:03:22;95099.28;;;13.71;100.00
34185;BME280;20454;48.100;11.776;2023-05-10T13:05:48;95092.88;;;13.70;100.00
34185;BME280;20454;48.100;11.776;2023-05-10T13:08:13;95101.38;;;13.74;100.00
34185;BME280;20454;48.100;11.776;2023-05-10T13:10:39;95100.41;;;13.82;100.00
34185;BME280;20454;48.100;11.776;2023-05-10T13:13:05;95099.59;;;13.93;100.00
34185;BME280;20454;48.100;11.776;2023-05-10T13:15:32;95097.25;;;14.07;100.00
34185;BME280;20454;48.100;11.776;2023-05-10T13:17:58;95087.41;;;14.13;100.00
34185;BME280;20454;48.100;11.776;2023-05-10T13:20:24;95092.66;;;14.15;100.00
34185;BME280;20454;48.100;11.776;2023-05-10T13:22:50;95090.91;;;14.10;100.00
34185;BME280;20454;48.100;11.776;2023-05-10T13:25:16;95095.09;;;14.16;100.00
34185;BME280;20454;48.100;11.776;2023-05-10T13:27:42;95095.69;;;14.10;100.00
34185;BME280;20454;48.100;11.776;2023-05-10T13:30:08;95100.34;;;14.18;100.00
34185;BME280;20454;48.100;11.776;2023-05-10T13:32:34;95093.25;;;14.20;100.00
34185;BME280;20454;48.100;11.776;2023-05-10T13:35:00;95093.94;;;14.17;99.47
34185;BME280;20454;48.100;11.776;2023-05-10T13:37:25;95093.63;;;14.19;99.79
34185;BME280;20454;48.100;11.776;2023-05-10T13:39:51;95096.00;;;14.32;98.47
34185;BME280;20454;48.100;11.776;2023-05-10T13:42:17;95095.13;;;14.44;98.80
34185;BME280;20454;48.100;11.776;2023-05-10T13:44:43;95102.63;;;14.40;99.25
34185;BME280;20454;48.100;11.776;2023-05-10T13:47:09;95095.63;;;14.46;100.00
34185;BME280;20454;48.100;11.776;2023-05-10T13:49:35;95090.41;;;14.60;98.84
34185;BME280;20454;48.100;11.776;2023-05-10T13:52:01;95084.53;;;14.65;98.56
34185;BME280;20454;48.100;11.776;2023-05-10T13:54:36;95091.06;;;14.69;96.60
34185;BME280;20454;48.100;11.776;2023-05-10T13:57:02;95082.59;;;14.81;95.42
34185;BME280;20454;48.100;11.776;2023-05-10T13:59:28;95095.16;;;14.87;97.57
34185;BME280;20454;48.100;11.776;2023-05-10T14:01:54;95093.25;;;14.90;95.97
34185;BME280;20454;48.100;11.776;2023-05-10T14:04:20;95087.31;;;14.92;94.15
34185;BME280;20454;48.100;11.776;2023-05-10T14:06:46;95089.19;;;14.88;95.74
34185;BME280;20454;48.100;11.776;2023-05-10T14:09:11;95088.19;;;14.96;97.64
34185;BME280;20454;48.100;11.776;2023-05-10T14:11:37;95088.19;;;14.96;97.52
34185;BME280;20454;48.100;11.776;2023-05-10T14:14:07;95078.81;;;15.04;99.03
34185;BME280;20454;48.100;11.776;2023-05-10T14:16:33;95078.53;;;15.09;95.67
34185;BME280;20454;48.100;11.776;2023-05-10T14:18:58;95084.50;;;14.92;95.94
34185;BME280;20454;48.100;11.776;2023-05-10T14:21:24;95077.53;;;14.86;94.33
34185;BME280;20454;48.100;11.776;2023-05-10T14:23:50;95082.75;;;14.72;95.33
34185;BME280;20454;48.100;11.776;2023-05-10T14:26:15;95079.66;;;14.62;98.18
34185;BME280;20454;48.100;11.776;2023-05-10T14:28:41;95084.53;;;14.65;98.26
34185;BME280;20454;48.100;11.776;2023-05-10T14:31:07;95084.19;;;14.66;99.36
34185;BME280;20454;48.100;11.776;2023-05-10T14:33:32;95088.41;;;14.60;98.97
34185;BME280;20454;48.100;11.776;2023-05-10T14:35:58;95075.84;;;14.54;99.01
34185;BME280;20454;48.100;11.776;2023-05-10T14:38:25;95087.03;;;14.54;99.33
34185;BME280;20454;48.100;11.776;2023-05-10T14:40:51;95085.59;;;14.60;98.21
34185;BME280;20454;48.100;11.776;2023-05-10T14:43:17;95084.44;;;14.61;97.49
34185;BME280;20454;48.100;11.776;2023-05-10T14:45:43;95081.03;;;14.68;98.50
34185;BME280;20454;48.100;11.776;2023-05-10T14:48:10;95087.13;;;14.58;96.12
34185;BME280;20454;48.100;11.776;2023-05-10T14:50:41;95080.00;;;14.60;95.62
34185;BME280;20454;48.100;11.776;2023-05-10T14:53:06;95081.19;;;14.59;96.71
34185;BME280;20454;48.100;11.776;2023-05-10T14:55:32;95082.59;;;14.53;95.29
34185;BME280;20454;48.100;11.776;2023-05-10T14:57:58;95089.94;;;14.30;96.97
34185;BME280;20454;48.100;11.776;2023-05-10T15:00:24;95086.84;;;14.20;98.52
34185;BME280;20454;48.100;11.776;2023-05-10T15:02:49;95089.16;;;14.18;99.24
34185;BME280;20454;48.100;11.776;2023-05-10T15:05:15;95094.16;;;14.12;100.00
34185;BME280;20454;48.100;11.776;2023-05-10T15:07:41;95101.06;;;14.03;100.00
34185;BME280;20454;48.100;11.776;2023-05-10T15:10:09;95096.19;;;14.00;100.00
34185;BME280;20454;48.100;11.776;2023-05-10T15:12:36;95096.31;;;13.91;100.00
34185;BME280;20454;48.100;11.776;2023-05-10T15:15:02;95104.28;;;13.77;100.00
34185;BME280;20454;48.100;11.776;2023-05-10T15:17:28;95108.84;;;13.70;100.00
34185;BME280;20454;48.100;11.776;2023-05-10T15:19:53;95112.69;;;13.65;100.00
34185;BME280;20454;48.100;11.776;2023-05-10T15:22:19;95110.47;;;13.59;100.00
34185;BME280;20454;48.100;11.776;2023-05-10T15:24:46;95108.63;;;13.51;100.00
34185;BME280;20454;48.100;11.776;2023-05-10T15:27:12;95120.13;;;13.49;100.00
34185;BME280;20454;48.100;11.776;2023-05-10T15:29:37;95115.84;;;13.52;100.00
34185;BME280;20454;48.100;11.776;2023-05-10T15:32:03;95116.28;;;13.54;100.00
34185;BME280;20454;48.100;11.776;2023-05-10T15:34:29;95117.91;;;13.55;100.00
34185;BME280;20454;48.100;11.776;2023-05-10T15:36:55;95115.59;;;13.45;100.00
34185;BME280;20454;48.100;11.776;2023-05-10T15:39:20;95121.53;;;13.43;100.00
34185;BME280;20454;48.100;11.776;2023-05-10T15:41:46;95126.91;;;13.48;100.00
34185;BME280;20454;48.100;11.776;2023-05-10T15:44:12;95125.28;;;13.47;100.00
34185;BME280;20454;48.100;11.776;2023-05-10T16:02:11;95137.22;;;13.12;100.00
34185;BME280;20454;48.100;11.776;2023-05-10T16:04:36;95137.09;;;13.08;100.00
34185;BME280;20454;48.100;11.776;2023-05-10T16:07:03;95136.78;;;13.10;100.00
34185;BME280;20454;48.100;11.776;2023-05-10T16:09:29;95144.19;;;13.06;100.00
34185;BME280;20454;48.100;11.776;2023-05-10T16:11:54;95155.13;;;12.99;100.00
34185;BME280;20454;48.100;11.776;2023-05-10T16:14:21;95143.97;;;12.99;100.00
34185;BME280;20454;48.100;11.776;2023-05-10T16:16:49;95145.13;;;12.98;100.00
34185;BME280;20454;48.100;11.776;2023-05-10T16:19:14;95143.69;;;12.92;100.00
34185;BME280;20454;48.100;11.776;2023-05-10T16:21:40;95150.44;;;12.91;100.00
34185;BME280;20454;48.100;11.776;2023-05-10T16:24:06;95156.50;;;12.93;100.00
34185;BME280;20454;48.100;11.776;2023-05-10T16:26:31;95151.72;;;12.93;100.00
34185;BME280;20454;48.100;11.776;2023-05-10T16:28:57;95154.03;;;12.91;100.00
34185;BME280;20454;48.100;11.776;2023-05-10T16:31:23;95155.09;;;12.87;100.00
34185;BME280;20454;48.100;11.776;2023-05-10T16:33:48;95152.84;;;12.80;100.00
34185;BME280;20454;48.100;11.776;2023-05-10T16:36:14;95159.25;;;12.81;100.00
34185;BME280;20454;48.100;11.776;2023-05-10T16:38:40;95167.16;;;12.79;100.00
34185;BME280;20454;48.100;11.776;2023-05-10T16:41:06;95163.22;;;12.80;100.00
34185;BME280;20454;48.100;11.776;2023-05-10T16:43:31;95165.50;;;12.78;100.00
34185;BME280;20454;48.100;11.776;2023-05-10T16:45:57;95163.88;;;12.77;100.00
34185;BME280;20454;48.100;11.776;2023-05-10T16:48:23;95163.03;;;12.64;100.00
34185;BME280;20454;48.100;11.776;2023-05-10T16:50:48;95163.41;;;12.75;100.00
34185;BME280;20454;48.100;11.776;2023-05-10T16:53:14;95174.25;;;12.76;100.00
34185;BME280;20454;48.100;11.776;2023-05-10T16:55:40;95168.41;;;12.69;100.00
34185;BME280;20454;48.100;11.776;2023-05-10T16:58:06;95178.75;;;12.69;100.00
34185;BME280;20454;48.100;11.776;2023-05-10T17:00:32;95182.91;;;12.63;100.00
34185;BME280;20454;48.100;11.776;2023-05-10T17:02:57;95184.28;;;12.57;100.00
34185;BME280;20454;48.100;11.776;2023-05-10T17:05:23;95180.19;;;12.54;100.00
34185;BME280;20454;48.100;11.776;2023-05-10T17:07:49;95183.34;;;12.53;100.00
34185;BME280;20454;48.100;11.776;2023-05-10T17:10:15;95186.94;;;12.53;100.00
34185;BME280;20454;48.100;11.776;2023-05-10T17:12:41;95188.66;;;12.46;100.00
34185;BME280;20454;48.100;11.776;2023-05-10T17:15:07;95180.56;;;12.32;100.00
34185;BME280;20454;48.100;11.776;2023-05-10T17:17:33;95186.81;;;12.29;100.00
34185;BME280;20454;48.100;11.776;2023-05-10T17:19:59;95189.16;;;12.27;100.00
34185;BME280;20454;48.100;11.776;2023-05-10T17:22:25;95193.44;;;12.25;100.00
34185;BME280;20454;48.100;11.776;2023-05-10T17:24:50;95199.34;;;12.23;100.00
34185;BME280;20454;48.100;11.776;2023-05-10T17:27:16;95201.72;;;12.13;100.00
34185;BME280;20454;48.100;11.776;2023-05-10T17:29:42;95200.75;;;12.09;100.00
34185;BME280;20454;48.100;11.776;2023-05-10T17:32:08;95193.53;;;12.08;100.00
34185;BME280;20454;48.100;11.776;2023-05-10T17:34:37;95197.91;;;11.97;100.00
34185;BME280;20454;48.100;11.776;2023-05-10T18:59:58;95257.19;;;10.76;100.00
34185;BME280;20454;48.100;11.776;2023-05-10T19:02:24;95257.66;;;10.70;100.00
34185;BME280;20454;48.100;11.776;2023-05-10T19:04:51;95266.50;;;10.72;100.00
34185;BME280;20454;48.100;11.776;2023-05-10T19:07:16;95267.97;;;10.69;100.00
34185;BME280;20454;48.100;11.776;2023-05-10T19:09:42;95265.19;;;10.69;100.00
34185;BME280;20454;48.100;11.776;2023-05-10T19:12:08;95267.63;;;10.71;100.00
34185;BME280;20454;48.100;11.776;2023-05-10T19:14:33;95268.31;;;10.68;100.00
34185;BME280;20454;48.100;11.776;2023-05-10T19:16:59;95276.97;;;10.66;100.00